Terminal Aerodrome Forecast
Issued by NWS

Home | Current Version | Previous Version | Text Only | Print | Product List | Glossary On
Versions: 1 2 3 4 5 6 7 8 9 10 11 12 13 14
566
FTUS46 KSEW 101120
TAFHQM
TAF
KHQM 101120Z 1012/1112 08008KT P6SM BKN120 BKN200
     FM101600 12008KT P6SM -RA BKN040 OVC080
     FM110000 16006KT P6SM BKN050 BKN100=

USA.gov is the U.S. government's official web portal to all federal, state and local government web resources and services.